Portada
METAR-TAF:

METAR-TAF

Aeropuertos :

Aeropuerto Internacional de Baréin

Baréin, Bahréin

latitud: 26-16N, longitud: 050-39E, altitud: 2 m

Observación

El informe se hizo hace 24 minutos, a las 13:30 UTC
Viento 18 kt del noroeste
Temperatura 17°C
Humedad 48%
Presión 1018 hPa
Visibilidad: 3000 m
Cielo despejado
Polvo extendido

METAR: OBBI 181330Z 31018KT 3000 DU SKC 17/06 Q1018 TEMPO 1500

Hora: 16:54 (13:54 UTC)

Pronóstico

El informe se hizo hace 2 horas y 54 minutos, a las 11:00 UTC
Pronóstico válido del 18 a las 12 UTC al 19 a las 18 UTC
Viento 17 kt del norte-noroeste
Visibilidad: 5000 m
Temporalmente
del 18 a las 12 UTC al 18 a las 20 UTC
Visibilidad: 3000 m
Polvo extendido
Evolucionando progresivamente
del 19 a las 03 UTC al 19 a las 05 UTC
Visibilidad: 8000 m

TAF: OBBI 181100Z 1812/1918 33017KT 5000 NSC TEMPO 1812/1820 3000 DU BECMG 1903/1905 8000

Observaciones y pronósticos meteorológicos de más de 4000 aeropuertos (mensajes METAR y TAF).

Los puntos amarillos y rojos representan las estaciones disponibles.

Ponga el ratón en el punto deseado para ver el nombre de la estación.

Haga clic para ver las observaciones y los pronósticos meteorológicos.

Para cambiar el mapa : haga clic en los botones verdes con una cruz de color negro para hacer un zoom, en el botón verde con un guión para alejar o en las flechas verdes para mapas adyacentes.


METAR-TAF: